sensor_id;sensor_type;location;lat;lon;timestamp;temperature;humidity
66582;SHT31;53438;48.898;2.308;2022-11-12T00:00:43;11.61;80.05
66582;SHT31;53438;48.898;2.308;2022-11-12T00:03:09;11.65;79.86
66582;SHT31;53438;48.898;2.308;2022-11-12T00:05:35;11.71;79.73
66582;SHT31;53438;48.898;2.308;2022-11-12T00:08:00;11.67;79.87
66582;SHT31;53438;48.898;2.308;2022-11-12T00:10:26;11.68;79.85
66582;SHT31;53438;48.898;2.308;2022-11-12T00:12:52;11.74;79.68
66582;SHT31;53438;48.898;2.308;2022-11-12T00:15:17;11.75;79.69
66582;SHT31;53438;48.898;2.308;2022-11-12T00:17:43;11.79;79.50
66582;SHT31;53438;48.898;2.308;2022-11-12T00:20:09;11.73;79.60
66582;SHT31;53438;48.898;2.308;2022-11-12T00:22:35;11.64;79.82
66582;SHT31;53438;48.898;2.308;2022-11-12T00:25:01;11.58;79.79
66582;SHT31;53438;48.898;2.308;2022-11-12T00:27:26;11.63;79.59
66582;SHT31;53438;48.898;2.308;2022-11-12T00:29:52;11.68;79.71
66582;SHT31;53438;48.898;2.308;2022-11-12T00:32:17;11.67;79.35
66582;SHT31;53438;48.898;2.308;2022-11-12T00:34:45;11.54;80.15
66582;SHT31;53438;48.898;2.308;2022-11-12T00:37:10;11.65;79.77
66582;SHT31;53438;48.898;2.308;2022-11-12T00:39:35;11.53;80.25
66582;SHT31;53438;48.898;2.308;2022-11-12T00:42:01;11.54;80.18
66582;SHT31;53438;48.898;2.308;2022-11-12T00:44:27;11.61;79.95
66582;SHT31;53438;48.898;2.308;2022-11-12T00:46:54;11.67;79.97
66582;SHT31;53438;48.898;2.308;2022-11-12T00:49:19;11.60;80.05
66582;SHT31;53438;48.898;2.308;2022-11-12T00:51:45;11.54;80.14
66582;SHT31;53438;48.898;2.308;2022-11-12T00:54:10;11.53;80.13
66582;SHT31;53438;48.898;2.308;2022-11-12T00:56:36;11.54;80.09
66582;SHT31;53438;48.898;2.308;2022-11-12T00:59:01;11.54;80.33
66582;SHT31;53438;48.898;2.308;2022-11-12T04:00:23;10.64;79.95
66582;SHT31;53438;48.898;2.308;2022-11-12T04:02:49;10.64;80.14
66582;SHT31;53438;48.898;2.308;2022-11-12T04:05:15;10.73;79.93
66582;SHT31;53438;48.898;2.308;2022-11-12T04:08:09;10.58;80.32
66582;SHT31;53438;48.898;2.308;2022-11-12T04:10:54;10.68;79.99
66582;SHT31;53438;48.898;2.308;2022-11-12T04:13:20;10.72;79.65
66582;SHT31;53438;48.898;2.308;2022-11-12T04:16:01;10.61;80.07
66582;SHT31;53438;48.898;2.308;2022-11-12T04:18:47;10.62;79.91
66582;SHT31;53438;48.898;2.308;2022-11-12T04:21:35;10.56;80.13
66582;SHT31;53438;48.898;2.308;2022-11-12T04:29:43;10.65;80.36
66582;SHT31;53438;48.898;2.308;2022-11-12T04:32:28;10.73;80.50
66582;SHT31;53438;48.898;2.308;2022-11-12T04:34:54;10.73;80.81
66582;SHT31;53438;48.898;2.308;2022-11-12T04:37:21;10.72;80.96
66582;SHT31;53438;48.898;2.308;2022-11-12T04:39:47;10.69;81.02
66582;SHT31;53438;48.898;2.308;2022-11-12T04:42:12;10.68;80.92
66582;SHT31;53438;48.898;2.308;2022-11-12T04:44:56;10.75;80.96
66582;SHT31;53438;48.898;2.308;2022-11-12T04:47:26;10.77;81.02
66582;SHT31;53438;48.898;2.308;2022-11-12T04:49:52;10.82;80.72
66582;SHT31;53438;48.898;2.308;2022-11-12T04:52:18;10.80;80.81
66582;SHT31;53438;48.898;2.308;2022-11-12T04:54:43;10.79;80.82
66582;SHT31;53438;48.898;2.308;2022-11-12T04:57:09;10.88;80.76
66582;SHT31;53438;48.898;2.308;2022-11-12T04:59:34;10.75;81.08
66582;SHT31;53438;48.898;2.308;2022-11-12T05:01:59;10.65;81.45
66582;SHT31;53438;48.898;2.308;2022-11-12T05:04:25;10.69;81.37
66582;SHT31;53438;48.898;2.308;2022-11-12T05:06:55;10.69;81.32
66582;SHT31;53438;48.898;2.308;2022-11-12T05:09:23;10.72;81.43
66582;SHT31;53438;48.898;2.308;2022-11-12T05:11:50;10.75;81.31
66582;SHT31;53438;48.898;2.308;2022-11-12T05:14:16;10.75;81.26
66582;SHT31;53438;48.898;2.308;2022-11-12T05:16:42;10.76;81.22
66582;SHT31;53438;48.898;2.308;2022-11-12T05:19:07;10.77;81.41
66582;SHT31;53438;48.898;2.308;2022-11-12T05:21:33;10.73;81.61
66582;SHT31;53438;48.898;2.308;2022-11-12T05:24:17;10.61;81.71
66582;SHT31;53438;48.898;2.308;2022-11-12T05:26:42;10.68;81.50
66582;SHT31;53438;48.898;2.308;2022-11-12T05:29:07;10.65;81.55
66582;SHT31;53438;48.898;2.308;2022-11-12T05:31:33;10.77;81.24
66582;SHT31;53438;48.898;2.308;2022-11-12T05:33:58;10.76;81.11
66582;SHT31;53438;48.898;2.308;2022-11-12T05:36:24;10.73;81.20
66582;SHT31;53438;48.898;2.308;2022-11-12T05:38:49;10.71;81.20
66582;SHT31;53438;48.898;2.308;2022-11-12T05:41:15;10.69;81.31
66582;SHT31;53438;48.898;2.308;2022-11-12T05:43:40;10.65;81.48
66582;SHT31;53438;48.898;2.308;2022-11-12T05:46:05;10.69;81.20
66582;SHT31;53438;48.898;2.308;2022-11-12T05:48:31;10.61;81.34
66582;SHT31;53438;48.898;2.308;2022-11-12T05:50:56;10.59;81.50
66582;SHT31;53438;48.898;2.308;2022-11-12T05:53:21;10.58;81.51
66582;SHT31;53438;48.898;2.308;2022-11-12T05:55:47;10.58;81.57
66582;SHT31;53438;48.898;2.308;2022-11-12T05:58:12;10.48;81.98
66582;SHT31;53438;48.898;2.308;2022-11-12T06:00:38;10.51;81.94
66582;SHT31;53438;48.898;2.308;2022-11-12T06:03:07;10.52;81.88
66582;SHT31;53438;48.898;2.308;2022-11-12T06:05:33;10.59;81.53
66582;SHT31;53438;48.898;2.308;2022-11-12T06:07:59;10.58;81.34
66582;SHT31;53438;48.898;2.308;2022-11-12T06:10:25;10.72;80.98
66582;SHT31;53438;48.898;2.308;2022-11-12T06:12:50;10.75;80.75
66582;SHT31;53438;48.898;2.308;2022-11-12T06:15:16;10.71;80.85
66582;SHT31;53438;48.898;2.308;2022-11-12T06:17:42;10.64;80.82
66582;SHT31;53438;48.898;2.308;2022-11-12T06:20:08;10.55;80.60
66582;SHT31;53438;48.898;2.308;2022-11-12T06:22:33;10.55;80.63
66582;SHT31;53438;48.898;2.308;2022-11-12T06:24:58;10.58;80.56
66582;SHT31;53438;48.898;2.308;2022-11-12T06:27:24;10.56;80.60
66582;SHT31;53438;48.898;2.308;2022-11-12T06:29:49;10.52;80.57
66582;SHT31;53438;48.898;2.308;2022-11-12T06:32:15;10.55;80.58
66582;SHT31;53438;48.898;2.308;2022-11-12T06:34:40;10.48;80.03
66582;SHT31;53438;48.898;2.308;2022-11-12T06:37:05;10.35;79.97
66582;SHT31;53438;48.898;2.308;2022-11-12T06:39:31;10.31;79.97
66582;SHT31;53438;48.898;2.308;2022-11-12T06:41:56;10.30;79.97
66582;SHT31;53438;48.898;2.308;2022-11-12T06:44:22;10.33;79.54
66582;SHT31;53438;48.898;2.308;2022-11-12T06:46:47;10.33;79.50
66582;SHT31;53438;48.898;2.308;2022-11-12T06:49:12;10.30;79.36
66582;SHT31;53438;48.898;2.308;2022-11-12T06:51:38;10.25;79.67
66582;SHT31;53438;48.898;2.308;2022-11-12T06:54:04;10.21;79.80
66582;SHT31;53438;48.898;2.308;2022-11-12T06:56:30;10.27;79.63
66582;SHT31;53438;48.898;2.308;2022-11-12T06:58:55;10.25;79.45
66582;SHT31;53438;48.898;2.308;2022-11-12T07:01:20;10.16;79.78
66582;SHT31;53438;48.898;2.308;2022-11-12T07:03:50;10.06;80.15
66582;SHT31;53438;48.898;2.308;2022-11-12T07:06:16;10.13;80.04
66582;SHT31;53438;48.898;2.308;2022-11-12T07:08:45;10.24;79.52
66582;SHT31;53438;48.898;2.308;2022-11-12T07:11:11;10.22;79.04
66582;SHT31;53438;48.898;2.308;2022-11-12T07:13:36;10.22;78.52
66582;SHT31;53438;48.898;2.308;2022-11-12T07:16:04;9.96;79.16
66582;SHT31;53438;48.898;2.308;2022-11-12T07:18:30;9.94;79.43
66582;SHT31;53438;48.898;2.308;2022-11-12T07:20:57;9.94;79.74
66582;SHT31;53438;48.898;2.308;2022-11-12T07:23:23;9.93;79.58
66582;SHT31;53438;48.898;2.308;2022-11-12T07:25:58;9.90;79.78
66582;SHT31;53438;48.898;2.308;2022-11-12T07:28:24;9.96;79.84
66582;SHT31;53438;48.898;2.308;2022-11-12T07:31:02;10.06;79.49
66582;SHT31;53438;48.898;2.308;2022-11-12T07:33:28;10.03;79.28
66582;SHT31;53438;48.898;2.308;2022-11-12T07:36:05;10.14;78.98
66582;SHT31;53438;48.898;2.308;2022-11-12T07:38:44;10.17;78.66
66582;SHT31;53438;48.898;2.308;2022-11-12T07:41:20;9.97;79.07
66582;SHT31;53438;48.898;2.308;2022-11-12T07:43:47;9.93;79.40
66582;SHT31;53438;48.898;2.308;2022-11-12T07:46:22;9.94;79.56
66582;SHT31;53438;48.898;2.308;2022-11-12T07:48:48;9.96;79.47
66582;SHT31;53438;48.898;2.308;2022-11-12T07:51:16;10.03;79.44
66582;SHT31;53438;48.898;2.308;2022-11-12T07:53:43;9.91;79.51
66582;SHT31;53438;48.898;2.308;2022-11-12T07:56:10;9.96;79.46
66582;SHT31;53438;48.898;2.308;2022-11-12T07:58:36;10.08;79.24
66582;SHT31;53438;48.898;2.308;2022-11-12T08:03:34;9.98;79.44
66582;SHT31;53438;48.898;2.308;2022-11-12T08:06:00;10.07;79.26
66582;SHT31;53438;48.898;2.308;2022-11-12T08:08:25;10.07;79.33
66582;SHT31;53438;48.898;2.308;2022-11-12T08:10:55;10.04;79.41
66582;SHT31;53438;48.898;2.308;2022-11-12T08:13:20;10.21;79.16
66582;SHT31;53438;48.898;2.308;2022-11-12T08:15:46;10.27;78.98
66582;SHT31;53438;48.898;2.308;2022-11-12T08:18:11;10.38;78.90
66582;SHT31;53438;48.898;2.308;2022-11-12T08:20:37;10.54;78.66
66582;SHT31;53438;48.898;2.308;2022-11-12T08:23:02;10.62;78.63
66582;SHT31;53438;48.898;2.308;2022-11-12T08:25:27;10.77;78.28
66582;SHT31;53438;48.898;2.308;2022-11-12T08:27:57;10.89;78.21
66582;SHT31;53438;48.898;2.308;2022-11-12T08:30:24;10.97;78.16
66582;SHT31;53438;48.898;2.308;2022-11-12T08:32:57;11.12;78.11
66582;SHT31;53438;48.898;2.308;2022-11-12T08:35:24;11.19;78.00
66582;SHT31;53438;48.898;2.308;2022-11-12T08:37:50;11.34;77.91
66582;SHT31;53438;48.898;2.308;2022-11-12T08:40:15;11.36;77.76
66582;SHT31;53438;48.898;2.308;2022-11-12T08:42:41;11.57;77.33
66582;SHT31;53438;48.898;2.308;2022-11-12T08:45:07;11.65;76.93
66582;SHT31;53438;48.898;2.308;2022-11-12T08:47:32;11.70;76.78
66582;SHT31;53438;48.898;2.308;2022-11-12T08:49:57;11.75;76.60
66582;SHT31;53438;48.898;2.308;2022-11-12T08:52:23;11.78;76.51
66582;SHT31;53438;48.898;2.308;2022-11-12T08:54:48;11.88;76.40
66582;SHT31;53438;48.898;2.308;2022-11-12T08:57:13;11.98;75.95
66582;SHT31;53438;48.898;2.308;2022-11-12T08:59:39;11.96;75.66
66582;SHT31;53438;48.898;2.308;2022-11-12T09:02:04;11.99;75.75
66582;SHT31;53438;48.898;2.308;2022-11-12T09:04:30;11.94;75.84
66582;SHT31;53438;48.898;2.308;2022-11-12T09:06:56;12.09;75.61
66582;SHT31;53438;48.898;2.308;2022-11-12T09:09:21;12.01;75.57
66582;SHT31;53438;48.898;2.308;2022-11-12T09:11:46;12.06;75.61
66582;SHT31;53438;48.898;2.308;2022-11-12T09:14:12;12.11;75.59
66582;SHT31;53438;48.898;2.308;2022-11-12T09:16:37;12.13;75.62
66582;SHT31;53438;48.898;2.308;2022-11-12T09:19:02;12.13;75.45
66582;SHT31;53438;48.898;2.308;2022-11-12T09:21:28;12.21;75.26
66582;SHT31;53438;48.898;2.308;2022-11-12T09:23:53;12.22;75.29
66582;SHT31;53438;48.898;2.308;2022-11-12T09:26:19;12.30;74.85
66582;SHT31;53438;48.898;2.308;2022-11-12T09:28:45;12.29;74.87
66582;SHT31;53438;48.898;2.308;2022-11-12T09:31:10;12.40;74.68
66582;SHT31;53438;48.898;2.308;2022-11-12T09:33:35;12.39;74.71
66582;SHT31;53438;48.898;2.308;2022-11-12T09:36:02;12.44;74.25
66582;SHT31;53438;48.898;2.308;2022-11-12T09:38:28;12.52;74.33
66582;SHT31;53438;48.898;2.308;2022-11-12T09:41:03;12.40;74.30
66582;SHT31;53438;48.898;2.308;2022-11-12T09:43:32;12.30;74.74
66582;SHT31;53438;48.898;2.308;2022-11-12T09:46:28;12.30;74.83
66582;SHT31;53438;48.898;2.308;2022-11-12T09:49:19;12.28;75.16
66582;SHT31;53438;48.898;2.308;2022-11-12T09:52:05;12.40;74.86
66582;SHT31;53438;48.898;2.308;2022-11-12T09:54:34;12.49;74.59
66582;SHT31;53438;48.898;2.308;2022-11-12T09:57:01;12.50;74.80
66582;SHT31;53438;48.898;2.308;2022-11-12T09:59:31;12.52;74.65
66582;SHT31;53438;48.898;2.308;2022-11-12T10:02:20;12.54;74.43
66582;SHT31;53438;48.898;2.308;2022-11-12T10:08:49;12.63;74.54
66582;SHT31;53438;48.898;2.308;2022-11-12T10:19:21;12.80;73.78
66582;SHT31;53438;48.898;2.308;2022-11-12T10:22:01;12.67;74.06
66582;SHT31;53438;48.898;2.308;2022-11-12T10:24:35;12.73;74.15
66582;SHT31;53438;48.898;2.308;2022-11-12T10:27:14;12.72;74.07
66582;SHT31;53438;48.898;2.308;2022-11-12T10:32:14;12.70;74.31
66582;SHT31;53438;48.898;2.308;2022-11-12T10:34:39;12.73;74.26
66582;SHT31;53438;48.898;2.308;2022-11-12T10:37:10;12.72;74.22
66582;SHT31;53438;48.898;2.308;2022-11-12T10:39:41;12.72;74.31
66582;SHT31;53438;48.898;2.308;2022-11-12T10:42:10;12.73;74.43
66582;SHT31;53438;48.898;2.308;2022-11-12T10:44:37;12.79;74.22
66582;SHT31;53438;48.898;2.308;2022-11-12T10:47:22;12.83;74.20
66582;SHT31;53438;48.898;2.308;2022-11-12T10:50:02;12.93;73.86
66582;SHT31;53438;48.898;2.308;2022-11-12T10:52:28;12.97;73.80
66582;SHT31;53438;48.898;2.308;2022-11-12T10:55:19;12.95;73.86
66582;SHT31;53438;48.898;2.308;2022-11-12T10:57:44;12.91;74.07
66582;SHT31;53438;48.898;2.308;2022-11-12T11:02:50;12.95;74.00
66582;SHT31;53438;48.898;2.308;2022-11-12T11:07:50;12.94;74.10
66582;SHT31;53438;48.898;2.308;2022-11-12T11:10:33;13.01;73.75
66582;SHT31;53438;48.898;2.308;2022-11-12T11:13:24;13.04;73.61
66582;SHT31;53438;48.898;2.308;2022-11-12T11:16:32;13.03;73.71
66582;SHT31;53438;48.898;2.308;2022-11-12T11:19:04;13.10;73.78
66582;SHT31;53438;48.898;2.308;2022-11-12T11:24:38;13.16;73.65
66582;SHT31;53438;48.898;2.308;2022-11-12T11:27:27;13.21;73.55
66582;SHT31;53438;48.898;2.308;2022-11-12T11:30:12;13.29;73.42
66582;SHT31;53438;48.898;2.308;2022-11-12T11:35:51;13.41;73.40
66582;SHT31;53438;48.898;2.308;2022-11-12T11:47:02;13.70;72.54
66582;SHT31;53438;48.898;2.308;2022-11-12T11:57:56;13.96;71.80
66582;SHT31;53438;48.898;2.308;2022-11-12T12:00:34;13.94;71.77
66582;SHT31;53438;48.898;2.308;2022-11-12T12:09:09;14.01;71.97
66582;SHT31;53438;48.898;2.308;2022-11-12T12:12:10;14.03;72.09
66582;SHT31;53438;48.898;2.308;2022-11-12T12:15:15;13.97;72.43
66582;SHT31;53438;48.898;2.308;2022-11-12T12:20:24;14.07;72.32
66582;SHT31;53438;48.898;2.308;2022-11-12T12:23:09;14.24;72.06
66582;SHT31;53438;48.898;2.308;2022-11-12T12:25:39;14.23;72.03
66582;SHT31;53438;48.898;2.308;2022-11-12T12:30:40;14.31;71.89
66582;SHT31;53438;48.898;2.308;2022-11-12T12:33:26;14.35;71.85
66582;SHT31;53438;48.898;2.308;2022-11-12T12:36:00;14.40;71.78
66582;SHT31;53438;48.898;2.308;2022-11-12T12:38:47;14.46;71.74
66582;SHT31;53438;48.898;2.308;2022-11-12T12:41:23;14.57;71.55
66582;SHT31;53438;48.898;2.308;2022-11-12T12:44:01;14.54;71.56
66582;SHT31;53438;48.898;2.308;2022-11-12T12:46:30;14.65;71.26
66582;SHT31;53438;48.898;2.308;2022-11-12T12:48:56;14.61;71.56
66582;SHT31;53438;48.898;2.308;2022-11-12T12:51:23;14.61;71.68
66582;SHT31;53438;48.898;2.308;2022-11-12T12:53:51;14.65;71.63
66582;SHT31;53438;48.898;2.308;2022-11-12T12:58:49;14.60;71.84
66582;SHT31;53438;48.898;2.308;2022-11-12T13:03:59;14.64;71.93
66582;SHT31;53438;48.898;2.308;2022-11-12T13:06:56;14.75;71.65
66582;SHT31;53438;48.898;2.308;2022-11-12T13:09:24;14.79;71.60
66582;SHT31;53438;48.898;2.308;2022-11-12T13:11:52;14.86;71.46
66582;SHT31;53438;48.898;2.308;2022-11-12T13:35:38;15.10;71.09
66582;SHT31;53438;48.898;2.308;2022-11-12T13:40:51;15.24;70.70
66582;SHT31;53438;48.898;2.308;2022-11-12T13:43:36;15.33;70.69
66582;SHT31;53438;48.898;2.308;2022-11-12T13:48:57;15.46;70.35
66582;SHT31;53438;48.898;2.308;2022-11-12T13:53:48;15.37;70.52
66582;SHT31;53438;48.898;2.308;2022-11-12T13:56:26;15.43;70.69
66582;SHT31;53438;48.898;2.308;2022-11-12T13:58:51;15.41;70.69
66582;SHT31;53438;48.898;2.308;2022-11-12T14:01:20;15.43;70.59
66582;SHT31;53438;48.898;2.308;2022-11-12T14:03:48;15.49;70.62
66582;SHT31;53438;48.898;2.308;2022-11-12T14:06:15;15.50;70.83
66582;SHT31;53438;48.898;2.308;2022-11-12T14:14:18;15.62;70.36
66582;SHT31;53438;48.898;2.308;2022-11-12T14:22:13;15.62;70.54
66582;SHT31;53438;48.898;2.308;2022-11-12T14:24:39;15.54;70.77
66582;SHT31;53438;48.898;2.308;2022-11-12T14:27:21;15.60;70.69
66582;SHT31;53438;48.898;2.308;2022-11-12T14:29:46;15.57;70.89
66582;SHT31;53438;48.898;2.308;2022-11-12T14:32:12;15.61;70.91
66582;SHT31;53438;48.898;2.308;2022-11-12T14:34:37;15.65;70.76
66582;SHT31;53438;48.898;2.308;2022-11-12T14:37:03;15.75;70.68
66582;SHT31;53438;48.898;2.308;2022-11-12T14:39:29;15.78;70.49
66582;SHT31;53438;48.898;2.308;2022-11-12T14:41:56;15.84;70.31
66582;SHT31;53438;48.898;2.308;2022-11-12T14:44:27;15.80;70.56
66582;SHT31;53438;48.898;2.308;2022-11-12T14:46:55;15.80;70.50
66582;SHT31;53438;48.898;2.308;2022-11-12T14:49:35;15.84;70.51
66582;SHT31;53438;48.898;2.308;2022-11-12T14:52:10;15.74;70.81
66582;SHT31;53438;48.898;2.308;2022-11-12T14:55:03;15.68;71.08
66582;SHT31;53438;48.898;2.308;2022-11-12T14:57:30;15.62;71.24
66582;SHT31;53438;48.898;2.308;2022-11-12T14:59:57;15.55;71.41
66582;SHT31;53438;48.898;2.308;2022-11-12T15:02:24;15.55;71.54
66582;SHT31;53438;48.898;2.308;2022-11-12T15:05:01;15.53;71.75
66582;SHT31;53438;48.898;2.308;2022-11-12T15:07:33;15.50;71.73
66582;SHT31;53438;48.898;2.308;2022-11-12T15:09:59;15.40;71.90
66582;SHT31;53438;48.898;2.308;2022-11-12T15:12:30;15.39;72.13
66582;SHT31;53438;48.898;2.308;2022-11-12T15:15:09;15.31;72.24
66582;SHT31;53438;48.898;2.308;2022-11-12T15:17:41;15.39;72.36
66582;SHT31;53438;48.898;2.308;2022-11-12T15:20:15;15.44;72.26
66582;SHT31;53438;48.898;2.308;2022-11-12T15:22:48;15.49;72.32
66582;SHT31;53438;48.898;2.308;2022-11-12T15:27:48;15.40;72.48
66582;SHT31;53438;48.898;2.308;2022-11-12T15:32:42;15.47;72.61
66582;SHT31;53438;48.898;2.308;2022-11-12T15:37:51;15.30;72.91
66582;SHT31;53438;48.898;2.308;2022-11-12T15:40:19;15.34;72.89
66582;SHT31;53438;48.898;2.308;2022-11-12T15:42:46;15.29;72.92
66582;SHT31;53438;48.898;2.308;2022-11-12T15:45:17;15.26;73.12
66582;SHT31;53438;48.898;2.308;2022-11-12T15:47:43;15.34;73.15
66582;SHT31;53438;48.898;2.308;2022-11-12T15:50:23;15.27;73.24
66582;SHT31;53438;48.898;2.308;2022-11-12T15:52:50;15.33;73.23
66582;SHT31;53438;48.898;2.308;2022-11-12T15:55:16;15.34;73.11
66582;SHT31;53438;48.898;2.308;2022-11-12T15:57:53;15.30;73.24
66582;SHT31;53438;48.898;2.308;2022-11-12T16:00:23;15.29;73.27
66582;SHT31;53438;48.898;2.308;2022-11-12T16:02:54;15.19;73.50
66582;SHT31;53438;48.898;2.308;2022-11-12T16:05:20;15.14;73.66
66582;SHT31;53438;48.898;2.308;2022-11-12T16:07:45;15.10;73.88
66582;SHT31;53438;48.898;2.308;2022-11-12T16:10:15;15.10;73.91
66582;SHT31;53438;48.898;2.308;2022-11-12T16:12:41;15.26;73.67
66582;SHT31;53438;48.898;2.308;2022-11-12T16:15:27;15.16;73.95
66582;SHT31;53438;48.898;2.308;2022-11-12T16:17:53;15.16;73.95
66582;SHT31;53438;48.898;2.308;2022-11-12T16:22:50;15.12;74.20
66582;SHT31;53438;48.898;2.308;2022-11-12T16:25:16;15.10;74.19
66582;SHT31;53438;48.898;2.308;2022-11-12T16:27:42;15.00;74.56
66582;SHT31;53438;48.898;2.308;2022-11-12T16:30:21;14.98;74.66
66582;SHT31;53438;48.898;2.308;2022-11-12T16:32:47;14.99;74.77
66582;SHT31;53438;48.898;2.308;2022-11-12T16:35:13;14.99;74.80
66582;SHT31;53438;48.898;2.308;2022-11-12T16:37:40;14.96;74.93
66582;SHT31;53438;48.898;2.308;2022-11-12T16:40:14;14.89;75.11
66582;SHT31;53438;48.898;2.308;2022-11-12T16:42:41;14.85;75.23
66582;SHT31;53438;48.898;2.308;2022-11-12T16:45:17;14.89;75.29
66582;SHT31;53438;48.898;2.308;2022-11-12T16:47:48;14.95;75.21
66582;SHT31;53438;48.898;2.308;2022-11-12T16:50:16;14.96;75.06
66582;SHT31;53438;48.898;2.308;2022-11-12T16:52:42;14.91;75.14
66582;SHT31;53438;48.898;2.308;2022-11-12T16:55:07;14.89;75.23
66582;SHT31;53438;48.898;2.308;2022-11-12T16:57:34;14.83;75.48
66582;SHT31;53438;48.898;2.308;2022-11-12T16:59:59;14.76;75.64
66582;SHT31;53438;48.898;2.308;2022-11-12T17:02:25;14.75;75.70
66582;SHT31;53438;48.898;2.308;2022-11-12T17:04:50;14.69;75.84
66582;SHT31;53438;48.898;2.308;2022-11-12T17:07:16;14.69;75.79
66582;SHT31;53438;48.898;2.308;2022-11-12T17:09:41;14.67;76.13
66582;SHT31;53438;48.898;2.308;2022-11-12T17:12:07;14.65;76.25
66582;SHT31;53438;48.898;2.308;2022-11-12T17:14:33;14.64;76.29
66582;SHT31;53438;48.898;2.308;2022-11-12T17:16:58;14.67;76.28
66582;SHT31;53438;48.898;2.308;2022-11-12T17:19:24;14.75;76.07
66582;SHT31;53438;48.898;2.308;2022-11-12T17:21:49;14.72;76.13
66582;SHT31;53438;48.898;2.308;2022-11-12T17:24:15;14.72;76.12
66582;SHT31;53438;48.898;2.308;2022-11-12T17:26:40;14.68;76.23
66582;SHT31;53438;48.898;2.308;2022-11-12T17:29:05;14.65;76.35
66582;SHT31;53438;48.898;2.308;2022-11-12T17:31:31;14.58;76.53
66582;SHT31;53438;48.898;2.308;2022-11-12T17:33:56;14.55;76.62
66582;SHT31;53438;48.898;2.308;2022-11-12T17:36:24;14.54;76.74
66582;SHT31;53438;48.898;2.308;2022-11-12T17:38:57;14.49;76.86
66582;SHT31;53438;48.898;2.308;2022-11-12T17:41:24;14.48;76.97
66582;SHT31;53438;48.898;2.308;2022-11-12T17:43:54;14.49;76.98
66582;SHT31;53438;48.898;2.308;2022-11-12T17:46:20;14.51;76.85
66582;SHT31;53438;48.898;2.308;2022-11-12T17:48:46;14.55;76.78
66582;SHT31;53438;48.898;2.308;2022-11-12T17:51:13;14.46;77.10
66582;SHT31;53438;48.898;2.308;2022-11-12T17:53:39;14.40;77.21
66582;SHT31;53438;48.898;2.308;2022-11-12T17:56:05;14.45;77.17
66582;SHT31;53438;48.898;2.308;2022-11-12T17:58:31;14.45;77.12
66582;SHT31;53438;48.898;2.308;2022-11-12T18:01:23;14.37;77.31
66582;SHT31;53438;48.898;2.308;2022-11-12T18:03:51;14.42;77.15
66582;SHT31;53438;48.898;2.308;2022-11-12T18:06:23;14.42;77.27
66582;SHT31;53438;48.898;2.308;2022-11-12T18:08:56;14.35;77.33
66582;SHT31;53438;48.898;2.308;2022-11-12T18:11:23;14.34;77.42
66582;SHT31;53438;48.898;2.308;2022-11-12T18:13:48;14.34;77.37
66582;SHT31;53438;48.898;2.308;2022-11-12T18:16:18;14.28;77.60
66582;SHT31;53438;48.898;2.308;2022-11-12T18:18:43;14.27;77.69
66582;SHT31;53438;48.898;2.308;2022-11-12T18:21:09;14.23;77.87
66582;SHT31;53438;48.898;2.308;2022-11-12T18:23:36;14.25;77.76
66582;SHT31;53438;48.898;2.308;2022-11-12T18:26:02;14.21;77.90
66582;SHT31;53438;48.898;2.308;2022-11-12T18:28:27;14.14;78.15
66582;SHT31;53438;48.898;2.308;2022-11-12T18:30:58;14.10;78.30
66582;SHT31;53438;48.898;2.308;2022-11-12T18:33:24;14.13;78.25
66582;SHT31;53438;48.898;2.308;2022-11-12T18:36:02;14.21;77.96
66582;SHT31;53438;48.898;2.308;2022-11-12T18:38:31;14.23;77.95
66582;SHT31;53438;48.898;2.308;2022-11-12T18:43:35;14.18;78.06
66582;SHT31;53438;48.898;2.308;2022-11-12T18:46:00;14.14;78.12
66582;SHT31;53438;48.898;2.308;2022-11-12T18:48:27;14.06;78.40
66582;SHT31;53438;48.898;2.308;2022-11-12T18:51:03;14.03;78.49
66582;SHT31;53438;48.898;2.308;2022-11-12T18:53:29;14.03;78.64
66582;SHT31;53438;48.898;2.308;2022-11-12T18:55:58;13.99;78.73
66582;SHT31;53438;48.898;2.308;2022-11-12T18:58:24;13.97;78.78
66582;SHT31;53438;48.898;2.308;2022-11-12T19:00:49;14.06;78.45
66582;SHT31;53438;48.898;2.308;2022-11-12T19:03:15;14.03;78.55
66582;SHT31;53438;48.898;2.308;2022-11-12T19:05:40;14.04;78.37
66582;SHT31;53438;48.898;2.308;2022-11-12T19:08:06;14.01;78.61
66582;SHT31;53438;48.898;2.308;2022-11-12T19:10:31;13.97;78.66
66582;SHT31;53438;48.898;2.308;2022-11-12T19:12:56;13.96;78.74
66582;SHT31;53438;48.898;2.308;2022-11-12T19:15:24;14.00;78.65
66582;SHT31;53438;48.898;2.308;2022-11-12T19:17:50;13.94;78.79
66582;SHT31;53438;48.898;2.308;2022-11-12T19:20:15;13.97;78.78
66582;SHT31;53438;48.898;2.308;2022-11-12T19:22:42;13.93;78.61
66582;SHT31;53438;48.898;2.308;2022-11-12T19:25:08;13.97;78.57
66582;SHT31;53438;48.898;2.308;2022-11-12T19:27:33;13.94;78.61
66582;SHT31;53438;48.898;2.308;2022-11-12T19:29:59;13.87;79.03
66582;SHT31;53438;48.898;2.308;2022-11-12T19:32:24;13.84;79.16
66582;SHT31;53438;48.898;2.308;2022-11-12T19:34:49;13.83;79.20
66582;SHT31;53438;48.898;2.308;2022-11-12T19:37:15;13.74;79.40
66582;SHT31;53438;48.898;2.308;2022-11-12T19:39:40;13.73;79.36
66582;SHT31;53438;48.898;2.308;2022-11-12T19:42:06;13.77;79.24
66582;SHT31;53438;48.898;2.308;2022-11-12T19:44:33;13.70;79.50
66582;SHT31;53438;48.898;2.308;2022-11-12T19:46:58;13.67;79.59
66582;SHT31;53438;48.898;2.308;2022-11-12T19:49:23;13.61;79.87
66582;SHT31;53438;48.898;2.308;2022-11-12T19:51:49;13.63;79.80
66582;SHT31;53438;48.898;2.308;2022-11-12T19:54:14;13.65;79.69
66582;SHT31;53438;48.898;2.308;2022-11-12T19:56:40;13.62;79.80
66582;SHT31;53438;48.898;2.308;2022-11-12T19:59:05;13.61;79.75
66582;SHT31;53438;48.898;2.308;2022-11-12T20:01:31;13.61;79.76
66582;SHT31;53438;48.898;2.308;2022-11-12T20:03:56;13.55;79.81
66582;SHT31;53438;48.898;2.308;2022-11-12T20:06:22;13.58;79.85
66582;SHT31;53438;48.898;2.308;2022-11-12T20:08:50;13.55;79.93
66582;SHT31;53438;48.898;2.308;2022-11-12T20:11:16;13.62;79.67
66582;SHT31;53438;48.898;2.308;2022-11-12T20:13:43;13.55;79.89
66582;SHT31;53438;48.898;2.308;2022-11-12T20:16:14;13.51;80.03
66582;SHT31;53438;48.898;2.308;2022-11-12T20:18:39;13.42;80.37
66582;SHT31;53438;48.898;2.308;2022-11-12T20:21:05;13.41;80.42
66582;SHT31;53438;48.898;2.308;2022-11-12T20:23:32;13.43;80.34
66582;SHT31;53438;48.898;2.308;2022-11-12T20:26:06;13.39;80.43
66582;SHT31;53438;48.898;2.308;2022-11-12T20:28:33;13.38;80.57
66582;SHT31;53438;48.898;2.308;2022-11-12T20:31:04;13.36;80.45
66582;SHT31;53438;48.898;2.308;2022-11-12T20:33:30;13.31;80.58
66582;SHT31;53438;48.898;2.308;2022-11-12T20:36:02;13.29;80.61
66582;SHT31;53438;48.898;2.308;2022-11-12T20:38:27;13.29;80.64
66582;SHT31;53438;48.898;2.308;2022-11-12T20:40:59;13.35;80.49
66582;SHT31;53438;48.898;2.308;2022-11-12T20:43:26;13.32;80.57